Time;durP1;ratioP1;P1;durP2;ratioP2;P2;SDS_P1;SDS_P2;PMS_P1;PMS_P2;Temp;Humidity;BMP_temperature;BMP_pressure;BME280_temperature;BME280_humidity;BME280_pressure;Samples;Min_cycle;Max_cycle;Signal;HPM_P1;HPM_P2
2022/03/10 08:12:28;;;;;;;32.50;12.30;;;;;;;;;;5103643;27;20373;-60
2022/03/10 08:14:54;;;;;;;26.50;12.48;;;;;;;;;;5105090;27;20146;-60
2022/03/10 08:17:21;;;;;;;27.83;12.23;;;;;;;;;;5105607;27;20056;-60
2022/03/10 08:19:47;;;;;;;31.08;12.98;;;;;;;;;;5105146;27;20135;-60
2022/03/10 08:22:17;;;;;;;27.10;12.45;;;;;;;;;;5094288;27;20063;-61
2022/03/10 08:24:44;;;;;;;30.75;13.20;;;;;;;;;;5093313;28;20098;-60
2022/03/10 08:27:11;;;;;;;34.22;14.05;;;;;;;;;;5089416;28;20129;-61
2022/03/10 08:29:38;;;;;;;31.98;13.85;;;;;;;;;;5097915;27;20067;-61
2022/03/10 08:32:09;;;;;;;29.48;13.77;;;;;;;;;;5084853;28;20055;-61
2022/03/10 08:34:36;;;;;;;31.02;13.77;;;;;;;;;;5084175;28;20060;-61
2022/03/10 08:37:02;;;;;;;31.80;13.90;;;;;;;;;;5110064;27;20420;-61
2022/03/10 08:39:29;;;;;;;37.60;13.98;;;;;;;;;;5102311;27;20457;-61
2022/03/10 08:41:55;;;;;;;30.15;13.50;;;;;;;;;;5090701;28;20154;-61
2022/03/10 08:44:21;;;;;;;31.02;13.95;;;;;;;;;;5091384;28;20131;-62
2022/03/10 08:46:48;;;;;;;28.35;12.57;;;;;;;;;;5088673;27;20056;-63
2022/03/10 08:49:17;;;;;;;33.10;13.70;;;;;;;;;;5084087;27;20056;-63
2022/03/10 08:51:44;;;;;;;32.38;14.32;;;;;;;;;;5103452;27;20053;-63
2022/03/10 08:54:12;;;;;;;30.05;14.57;;;;;;;;;;5098873;28;20078;-63
2022/03/10 08:56:38;;;;;;;27.50;13.20;;;;;;;;;;5104272;28;20063;-63
2022/03/10 08:59:05;;;;;;;29.58;13.50;;;;;;;;;;5098211;28;20049;-63
2022/03/10 09:01:31;;;;;;;29.15;13.65;;;;;;;;;;5095026;28;20142;-64
2022/03/10 09:03:58;;;;;;;29.00;14.02;;;;;;;;;;5083563;28;20048;-63
2022/03/10 09:06:25;;;;;;;35.47;14.07;;;;;;;;;;5083038;28;20052;-64
2022/03/10 09:08:51;;;;;;;28.23;13.52;;;;;;;;;;5095612;28;20151;-63
2022/03/10 09:11:17;;;;;;;31.25;13.82;;;;;;;;;;5097819;27;20052;-64
2022/03/10 09:13:48;;;;;;;29.77;13.35;;;;;;;;;;5104017;28;20056;-64
2022/03/10 09:16:15;;;;;;;28.45;12.90;;;;;;;;;;5103036;27;20457;-63
2022/03/10 09:18:43;;;;;;;25.77;11.95;;;;;;;;;;5101607;28;20136;-64
2022/03/10 09:21:09;;;;;;;38.20;14.05;;;;;;;;;;5095871;28;20071;-64
2022/03/10 09:23:36;;;;;;;33.42;14.90;;;;;;;;;;5090738;28;20080;-64
2022/03/10 09:26:02;;;;;;;28.75;13.70;;;;;;;;;;5090297;28;20074;-64
2022/03/10 09:28:29;;;;;;;32.38;14.10;;;;;;;;;;5082388;28;20542;-64
2022/03/10 09:30:55;;;;;;;30.98;13.82;;;;;;;;;;5084489;28;20196;-64
2022/03/10 09:33:21;;;;;;;29.23;13.60;;;;;;;;;;5079605;28;20053;-64
2022/03/10 09:35:48;;;;;;;30.15;14.50;;;;;;;;;;5071668;28;20160;-64
2022/03/10 09:38:17;;;;;;;30.92;14.38;;;;;;;;;;5089195;28;20139;-64
2022/03/10 09:40:46;;;;;;;27.83;13.65;;;;;;;;;;5090096;28;20056;-64
2022/03/10 09:43:12;;;;;;;29.77;15.15;;;;;;;;;;5074003;28;20045;-64
2022/03/10 09:45:39;;;;;;;31.15;13.82;;;;;;;;;;5084722;28;20080;-64
2022/03/10 09:48:08;;;;;;;32.15;14.27;;;;;;;;;;5074907;28;20060;-64
2022/03/10 09:50:35;;;;;;;30.52;14.75;;;;;;;;;;5069499;28;20587;-64
2022/03/10 09:53:02;;;;;;;29.58;13.98;;;;;;;;;;5070645;28;20055;-64
2022/03/10 09:55:28;;;;;;;30.48;15.35;;;;;;;;;;5071627;28;20060;-64
2022/03/10 09:57:54;;;;;;;30.48;14.63;;;;;;;;;;5084769;28;20053;-64
2022/03/10 10:00:21;;;;;;;31.05;14.13;;;;;;;;;;5089531;28;20587;-65
2022/03/10 10:02:47;;;;;;;29.73;13.40;;;;;;;;;;5072960;28;20533;-64
2022/03/10 10:05:24;;;;;;;35.67;14.43;;;;;;;;;;5087564;28;20084;-64
2022/03/10 10:08:04;;;;;;;29.02;13.40;;;;;;;;;;5085533;28;20830;-64
2022/03/10 10:10:31;;;;;;;33.03;14.95;;;;;;;;;;5078963;28;20969;-64
2022/03/10 10:13:06;;;;;;;33.88;14.73;;;;;;;;;;5080256;28;20052;-64
2022/03/10 10:15:33;;;;;;;29.55;13.35;;;;;;;;;;5085811;28;20066;-64
2022/03/10 10:18:00;;;;;;;29.13;14.43;;;;;;;;;;5085066;28;20059;-64
2022/03/10 10:20:44;;;;;;;31.75;14.13;;;;;;;;;;5088054;28;20120;-64
2022/03/10 10:23:18;;;;;;;25.98;12.27;;;;;;;;;;5078209;28;20572;-64
2022/03/10 10:25:53;;;;;;;28.45;12.48;;;;;;;;;;5068652;28;20059;-64
2022/03/10 10:28:29;;;;;;;26.67;12.40;;;;;;;;;;5069434;28;20049;-65
2022/03/10 10:30:59;;;;;;;31.02;13.38;;;;;;;;;;5089989;28;20412;-66
2022/03/10 10:33:26;;;;;;;26.65;12.93;;;;;;;;;;5088267;28;20076;-64
2022/03/10 10:36:12;;;;;;;28.83;13.52;;;;;;;;;;5082377;28;20096;-65
2022/03/10 10:38:39;;;;;;;27.85;12.98;;;;;;;;;;5070077;28;20060;-65
2022/03/10 10:41:20;;;;;;;25.15;12.45;;;;;;;;;;5074810;28;20522;-65
2022/03/10 10:43:49;;;;;;;28.42;13.70;;;;;;;;;;5078211;28;20542;-67
2022/03/10 10:46:22;;;;;;;27.00;13.40;;;;;;;;;;5082750;28;20126;-66
2022/03/10 10:48:48;;;;;;;24.75;13.00;;;;;;;;;;5073993;28;20056;-66
2022/03/10 10:51:24;;;;;;;25.23;12.70;;;;;;;;;;5074429;28;20081;-65
2022/03/10 10:53:53;;;;;;;32.53;14.05;;;;;;;;;;5077246;28;20577;-65
2022/03/10 10:56:19;;;;;;;26.27;13.27;;;;;;;;;;5086052;28;20469;-66
2022/03/10 10:58:46;;;;;;;32.10;13.70;;;;;;;;;;5078362;28;20049;-66
2022/03/10 11:01:31;;;;;;;25.67;12.00;;;;;;;;;;5072882;28;20044;-66
2022/03/10 11:03:58;;;;;;;23.35;12.38;;;;;;;;;;5068863;28;20083;-66
2022/03/10 11:06:25;;;;;;;28.25;13.30;;;;;;;;;;5068524;28;20144;-66
2022/03/10 11:08:52;;;;;;;28.23;12.75;;;;;;;;;;5087003;28;20063;-65
2022/03/10 11:11:20;;;;;;;27.55;13.55;;;;;;;;;;5087308;28;20050;-65
2022/03/10 11:13:50;;;;;;;31.70;13.93;;;;;;;;;;5081528;28;20052;-65
2022/03/10 11:16:17;;;;;;;29.20;13.75;;;;;;;;;;5069026;28;20061;-65
2022/03/10 11:18:49;;;;;;;27.25;13.27;;;;;;;;;;5077658;28;20048;-65
2022/03/10 11:21:35;;;;;;;28.33;12.90;;;;;;;;;;5072628;28;20049;-65
2022/03/10 11:24:20;;;;;;;28.02;13.63;;;;;;;;;;5068173;28;20092;-65
2022/03/10 11:26:58;;;;;;;30.33;13.90;;;;;;;;;;5068326;28;20136;-65
2022/03/10 11:29:26;;;;;;;29.58;13.68;;;;;;;;;;5068293;28;20144;-64
2022/03/10 11:31:53;;;;;;;25.10;13.23;;;;;;;;;;5067883;28;20555;-64
2022/03/10 11:34:38;;;;;;;23.52;11.93;;;;;;;;;;5075209;28;20059;-62
2022/03/10 11:37:12;;;;;;;25.63;12.63;;;;;;;;;;5067920;28;20072;-60
2022/03/10 11:40:08;;;;;;;25.40;12.27;;;;;;;;;;5066229;28;20056;-61
2022/03/10 11:42:35;;;;;;;26.10;11.30;;;;;;;;;;5069552;28;20052;-61
2022/03/10 11:45:11;;;;;;;22.80;11.35;;;;;;;;;;5065775;28;20057;-61
2022/03/10 11:47:39;;;;;;;25.85;13.23;;;;;;;;;;5077236;28;20499;-64
2022/03/10 11:50:20;;;;;;;22.17;11.85;;;;;;;;;;5072748;28;20049;-61
2022/03/10 11:52:52;;;;;;;25.33;11.50;;;;;;;;;;5069354;28;20535;-61
2022/03/10 11:55:20;;;;;;;27.38;11.57;;;;;;;;;;5074246;28;20057;-62
2022/03/10 11:57:55;;;;;;;27.20;12.48;;;;;;;;;;5084095;28;20063;-61
2022/03/10 12:00:47;;;;;;;22.90;11.40;;;;;;;;;;5069681;28;20053;-61
2022/03/10 12:03:18;;;;;;;27.00;13.25;;;;;;;;;;5077419;28;20057;-62
2022/03/10 12:05:51;;;;;;;28.23;13.73;;;;;;;;;;5080333;28;20048;-62
2022/03/10 12:08:18;;;;;;;28.00;13.15;;;;;;;;;;5080468;28;20079;-62
2022/03/10 12:10:45;;;;;;;23.92;11.85;;;;;;;;;;5070073;28;20054;-64
2022/03/10 12:13:28;;;;;;;24.27;11.93;;;;;;;;;;5070911;28;20143;-64
2022/03/10 12:15:55;;;;;;;23.70;12.02;;;;;;;;;;5076734;28;20131;-63
2022/03/10 12:18:24;;;;;;;25.20;12.65;;;;;;;;;;5071224;28;20139;-62
2022/03/10 12:20:50;;;;;;;;;;;;;;;;;;5072196;28;20521;-64
2022/03/10 12:23:20;;;;;;;26.27;11.25;;;;;;;;;;5068516;28;44551;-63
2022/03/10 12:25:47;;;;;;;28.50;12.50;;;;;;;;;;5076702;28;20110;-63
2022/03/10 12:28:21;;;;;;;22.40;11.45;;;;;;;;;;5069527;28;20049;-63
2022/03/10 12:30:48;;;;;;;27.65;13.52;;;;;;;;;;5077361;28;20143;-63
2022/03/10 12:33:15;;;;;;;26.52;12.43;;;;;;;;;;5078538;28;20063;-63
2022/03/10 12:35:41;;;;;;;28.60;13.43;;;;;;;;;;5073053;28;20209;-63
2022/03/10 12:38:08;;;;;;;27.95;13.25;;;;;;;;;;5070834;28;20503;-63
2022/03/10 12:40:36;;;;;;;27.15;13.18;;;;;;;;;;5083009;28;20055;-64
2022/03/10 12:43:07;;;;;;;23.75;12.57;;;;;;;;;;5086458;28;20075;-64
2022/03/10 12:45:41;;;;;;;28.13;13.38;;;;;;;;;;5071662;28;20057;-66
2022/03/10 12:48:13;;;;;;;22.52;11.45;;;;;;;;;;5067986;28;20053;-65
2022/03/10 12:50:39;;;;;;;32.08;13.25;;;;;;;;;;5066950;28;20787;-62
2022/03/10 12:53:12;;;;;;;27.05;13.25;;;;;;;;;;5066349;28;20060;-65
2022/03/10 12:55:39;;;;;;;25.02;12.48;;;;;;;;;;5072686;28;20048;-62
2022/03/10 12:58:06;;;;;;;23.77;11.23;;;;;;;;;;5081309;28;20964;-62
2022/03/10 13:00:40;;;;;;;25.25;11.38;;;;;;;;;;5077517;28;20053;-62
2022/03/10 13:03:06;;;;;;;24.67;12.55;;;;;;;;;;5075653;28;20423;-62
2022/03/10 13:05:37;;;;;;;31.48;12.95;;;;;;;;;;5092401;27;20048;-62
2022/03/10 13:08:05;;;;;;;25.83;11.38;;;;;;;;;;5080661;28;20072;-63
2022/03/10 13:10:32;;;;;;;23.17;11.57;;;;;;;;;;5093947;28;20056;-65
2022/03/10 13:12:58;;;;;;;26.58;11.48;;;;;;;;;;5110817;27;20052;-62
2022/03/10 13:15:25;;;;;;;22.58;11.40;;;;;;;;;;5083821;27;20132;-63
2022/03/10 13:17:52;;;;;;;25.20;11.27;;;;;;;;;;5080616;28;20052;-62
2022/03/10 13:20:23;;;;;;;22.10;11.35;;;;;;;;;;5083516;28;20083;-62
2022/03/10 13:22:50;;;;;;;30.77;12.55;;;;;;;;;;5075409;28;20141;-63
2022/03/10 13:25:17;;;;;;;25.10;12.13;;;;;;;;;;5074310;28;20059;-61
2022/03/10 13:27:45;;;;;;;24.92;12.15;;;;;;;;;;5086689;28;20049;-61
2022/03/10 13:30:18;;;;;;;25.17;11.32;;;;;;;;;;5086923;28;20052;-60
2022/03/10 13:32:44;;;;;;;25.20;11.45;;;;;;;;;;5088474;28;20057;-60
2022/03/10 13:35:11;;;;;;;24.95;13.05;;;;;;;;;;5076928;28;20089;-60
2022/03/10 13:37:38;;;;;;;24.00;12.27;;;;;;;;;;5073637;28;20967;-61
2022/03/10 13:40:05;;;;;;;23.23;11.45;;;;;;;;;;5082974;28;20195;-61
2022/03/10 13:42:32;;;;;;;22.83;11.70;;;;;;;;;;5088881;28;20063;-61
2022/03/10 13:45:05;;;;;;;26.40;13.23;;;;;;;;;;5069717;28;20048;-61
2022/03/10 13:47:50;;;;;;;22.65;12.15;;;;;;;;;;5069367;28;20147;-61
2022/03/10 13:50:18;;;;;;;23.98;12.07;;;;;;;;;;5067096;28;20546;-62
2022/03/10 13:52:44;;;;;;;25.35;11.50;;;;;;;;;;5068448;28;20067;-62
2022/03/10 13:55:11;;;;;;;22.05;12.23;;;;;;;;;;5093562;28;20055;-62
2022/03/10 13:57:37;;;;;;;24.02;12.30;;;;;;;;;;5092911;28;20834;-63
2022/03/10 14:00:05;;;;;;;23.42;12.48;;;;;;;;;;5109223;28;20059;-62
2022/03/10 14:02:31;;;;;;;23.70;11.73;;;;;;;;;;5110253;27;20152;-62
2022/03/10 14:04:58;;;;;;;26.77;13.48;;;;;;;;;;5110611;27;20135;-62
2022/03/10 14:07:24;;;;;;;24.85;12.88;;;;;;;;;;5109837;27;20058;-62
2022/03/10 14:09:53;;;;;;;26.40;13.60;;;;;;;;;;5070986;27;20052;-63
2022/03/10 14:12:22;;;;;;;26.95;13.73;;;;;;;;;;5069057;28;20123;-62
2022/03/10 14:14:53;;;;;;;29.92;13.52;;;;;;;;;;5069076;28;20135;-63
2022/03/10 14:17:19;;;;;;;25.50;13.63;;;;;;;;;;5068983;28;20060;-63
2022/03/10 14:19:47;;;;;;;24.13;12.70;;;;;;;;;;5068517;28;20057;-63
2022/03/10 14:22:17;;;;;;;24.77;12.80;;;;;;;;;;5068774;28;20116;-63
2022/03/10 14:24:51;;;;;;;22.83;12.95;;;;;;;;;;5069662;28;20059;-63
2022/03/10 14:27:17;;;;;;;29.15;13.27;;;;;;;;;;5068000;28;20059;-62
2022/03/10 14:29:50;;;;;;;23.88;12.85;;;;;;;;;;5068684;28;20136;-62
2022/03/10 14:32:16;;;;;;;24.45;12.75;;;;;;;;;;5068310;28;20882;-62
2022/03/10 14:34:43;;;;;;;23.80;12.55;;;;;;;;;;5069228;28;20052;-62
2022/03/10 14:37:09;;;;;;;27.13;12.75;;;;;;;;;;5071307;28;20063;-62
2022/03/10 14:39:36;;;;;;;23.42;12.82;;;;;;;;;;5089141;28;20063;-63
2022/03/10 14:42:02;;;;;;;25.55;13.50;;;;;;;;;;5088498;28;20536;-62
2022/03/10 14:44:28;;;;;;;23.83;12.95;;;;;;;;;;5088588;28;20056;-63
2022/03/10 14:46:55;;;;;;;22.65;13.05;;;;;;;;;;5088250;28;20394;-62
2022/03/10 14:49:21;;;;;;;25.92;13.75;;;;;;;;;;5089195;28;20045;-62
2022/03/10 14:51:48;;;;;;;25.52;12.75;;;;;;;;;;5089129;28;20056;-63
2022/03/10 14:54:14;;;;;;;22.98;13.02;;;;;;;;;;5088377;28;20552;-63
2022/03/10 14:56:44;;;;;;;29.30;13.82;;;;;;;;;;5088589;28;20172;-63
2022/03/10 14:59:11;;;;;;;26.33;13.68;;;;;;;;;;5083940;28;20061;-63
2022/03/10 15:01:38;;;;;;;23.90;13.50;;;;;;;;;;5068347;28;20135;-63
2022/03/10 15:04:05;;;;;;;22.60;13.00;;;;;;;;;;5068261;28;20049;-63
2022/03/10 15:06:32;;;;;;;25.38;13.77;;;;;;;;;;5068220;28;20511;-62
2022/03/10 15:09:05;;;;;;;21.58;12.88;;;;;;;;;;5068897;28;20112;-62
2022/03/10 15:11:36;;;;;;;26.08;14.18;;;;;;;;;;5067462;28;20914;-63
2022/03/10 15:14:03;;;;;;;24.00;13.75;;;;;;;;;;5068489;28;20049;-63
2022/03/10 15:16:29;;;;;;;27.30;14.30;;;;;;;;;;5074850;28;20057;-63
2022/03/10 15:18:56;;;;;;;30.58;14.73;;;;;;;;;;5088175;28;20062;-63
2022/03/10 15:21:22;;;;;;;21.98;13.32;;;;;;;;;;5088006;28;20488;-63
2022/03/10 15:23:48;;;;;;;24.95;13.82;;;;;;;;;;5088105;28;20052;-63
2022/03/10 15:26:16;;;;;;;25.67;14.10;;;;;;;;;;5088225;28;21034;-63
2022/03/10 15:28:43;;;;;;;24.88;12.77;;;;;;;;;;5088833;28;20049;-63
2022/03/10 15:31:10;;;;;;;25.45;14.50;;;;;;;;;;5088198;28;20068;-63
2022/03/10 15:33:37;;;;;;;25.05;14.20;;;;;;;;;;5087202;28;20052;-63
2022/03/10 15:36:04;;;;;;;22.80;13.33;;;;;;;;;;5088686;28;20045;-63
2022/03/10 15:38:30;;;;;;;24.52;12.90;;;;;;;;;;5088270;28;20787;-63
2022/03/10 15:40:57;;;;;;;25.08;12.90;;;;;;;;;;5088337;28;20923;-63
2022/03/10 15:43:24;;;;;;;25.15;13.20;;;;;;;;;;5088458;28;20052;-63
2022/03/10 15:45:50;;;;;;;25.23;13.35;;;;;;;;;;5088035;28;20151;-63
2022/03/10 15:48:17;;;;;;;25.13;14.18;;;;;;;;;;5088132;28;20139;-63
2022/03/10 15:50:43;;;;;;;27.92;12.18;;;;;;;;;;5087172;28;20053;-62
2022/03/10 15:53:09;;;;;;;21.65;12.10;;;;;;;;;;5088229;28;20090;-63
2022/03/10 15:55:36;;;;;;;26.50;12.50;;;;;;;;;;5085724;28;20052;-63
2022/03/10 15:58:05;;;;;;;25.40;12.95;;;;;;;;;;5067499;28;20052;-63
2022/03/10 16:00:31;;;;;;;26.27;12.80;;;;;;;;;;5067560;28;20632;-63
2022/03/10 16:02:58;;;;;;;25.15;12.93;;;;;;;;;;5067992;28;20107;-62
2022/03/10 16:05:25;;;;;;;22.45;13.13;;;;;;;;;;5067053;28;20103;-63
2022/03/10 16:07:51;;;;;;;24.50;13.23;;;;;;;;;;5067764;28;20487;-63
2022/03/10 16:10:18;;;;;;;23.73;12.45;;;;;;;;;;5067374;28;20059;-63
2022/03/10 16:12:47;;;;;;;24.08;12.07;;;;;;;;;;5066829;28;20048;-63
2022/03/10 16:15:14;;;;;;;25.17;12.48;;;;;;;;;;5068160;28;20045;-63
2022/03/10 16:17:40;;;;;;;24.90;12.63;;;;;;;;;;5067102;28;20059;-63
2022/03/10 16:20:07;;;;;;;24.48;12.75;;;;;;;;;;5066811;28;20116;-63
2022/03/10 16:22:33;;;;;;;24.05;12.32;;;;;;;;;;5067521;28;20053;-63
2022/03/10 16:25:00;;;;;;;27.38;12.95;;;;;;;;;;5078138;28;20080;-62
2022/03/10 16:27:27;;;;;;;22.58;11.90;;;;;;;;;;5087009;28;20048;-63
2022/03/10 16:29:54;;;;;;;22.23;12.02;;;;;;;;;;5087548;28;20063;-63
2022/03/10 16:32:20;;;;;;;26.52;12.20;;;;;;;;;;5087184;28;20055;-63
2022/03/10 16:34:47;;;;;;;25.58;11.82;;;;;;;;;;5090600;28;20056;-63
2022/03/10 16:37:14;;;;;;;24.85;11.68;;;;;;;;;;5091881;28;20052;-63
2022/03/10 16:39:40;;;;;;;22.90;12.00;;;;;;;;;;5079675;28;20178;-62
2022/03/10 16:42:07;;;;;;;28.45;12.63;;;;;;;;;;5071300;28;20477;-63
2022/03/10 16:44:33;;;;;;;24.20;12.70;;;;;;;;;;5070668;28;20053;-63
2022/03/10 16:47:01;;;;;;;25.10;12.05;;;;;;;;;;5069818;28;20053;-63
2022/03/10 16:49:27;;;;;;;27.73;12.27;;;;;;;;;;5070681;28;20152;-63
2022/03/10 16:51:54;;;;;;;21.65;11.32;;;;;;;;;;5070212;28;20156;-64
2022/03/10 16:54:21;;;;;;;25.45;12.55;;;;;;;;;;5070285;28;20049;-63
2022/03/10 16:56:47;;;;;;;22.48;11.77;;;;;;;;;;5071006;28;20057;-61
2022/03/10 16:59:13;;;;;;;27.42;12.23;;;;;;;;;;5070895;28;20057;-63
2022/03/10 17:01:40;;;;;;;25.70;12.63;;;;;;;;;;5070718;28;20156;-63
2022/03/10 17:04:06;;;;;;;24.75;12.82;;;;;;;;;;5070459;28;20168;-63
2022/03/10 17:06:34;;;;;;;25.67;12.98;;;;;;;;;;5069899;28;20136;-63
2022/03/10 17:09:04;;;;;;;24.73;13.02;;;;;;;;;;5071343;28;20063;-63
2022/03/10 17:11:31;;;;;;;29.42;13.30;;;;;;;;;;5071532;28;20068;-61
2022/03/10 17:13:58;;;;;;;24.38;12.00;;;;;;;;;;5088607;28;20048;-62
2022/03/10 17:16:25;;;;;;;24.58;12.80;;;;;;;;;;5086784;28;20084;-61
2022/03/10 17:18:52;;;;;;;30.55;12.77;;;;;;;;;;5090370;28;20470;-61
2022/03/10 17:21:18;;;;;;;25.13;13.38;;;;;;;;;;5090550;28;20048;-61
2022/03/10 17:23:45;;;;;;;27.52;12.57;;;;;;;;;;5077535;28;20057;-63
2022/03/10 17:26:11;;;;;;;27.65;12.52;;;;;;;;;;5076183;28;20132;-61
2022/03/10 17:28:38;;;;;;;26.30;12.90;;;;;;;;;;5090423;28;20053;-60
2022/03/10 17:31:04;;;;;;;25.92;13.20;;;;;;;;;;5071400;28;20059;-61
2022/03/10 17:33:30;;;;;;;28.83;12.70;;;;;;;;;;5080753;28;20058;-62
2022/03/10 17:35:59;;;;;;;25.10;12.85;;;;;;;;;;5088061;27;20052;-62
2022/03/10 17:38:25;;;;;;;25.90;12.20;;;;;;;;;;5078694;28;20066;-65
2022/03/10 17:40:52;;;;;;;24.27;12.82;;;;;;;;;;5081446;28;20052;-63
2022/03/10 17:43:18;;;;;;;26.38;13.05;;;;;;;;;;5084853;28;20427;-63
2022/03/10 17:45:45;;;;;;;24.15;12.65;;;;;;;;;;5088969;28;20079;-63
2022/03/10 17:48:11;;;;;;;27.42;12.35;;;;;;;;;;5077110;28;20712;-63
2022/03/10 17:50:38;;;;;;;30.85;13.35;;;;;;;;;;5072651;27;20102;-63
2022/03/10 17:53:05;;;;;;;29.35;12.55;;;;;;;;;;5081934;28;20048;-63
2022/03/10 17:55:34;;;;;;;29.45;12.95;;;;;;;;;;5073674;28;20052;-63
2022/03/10 17:58:01;;;;;;;26.88;13.15;;;;;;;;;;5086519;28;20077;-63
2022/03/10 18:00:27;;;;;;;26.20;12.63;;;;;;;;;;5081840;28;20055;-63
2022/03/10 18:02:57;;;;;;;28.20;13.90;;;;;;;;;;5071525;28;20064;-63
2022/03/10 18:05:25;;;;;;;30.38;14.65;;;;;;;;;;5096154;28;20131;-63
2022/03/10 18:07:53;;;;;;;29.35;14.05;;;;;;;;;;5082083;28;20041;-62
2022/03/10 18:10:19;;;;;;;27.45;15.30;;;;;;;;;;5084368;27;20148;-63
2022/03/10 18:12:46;;;;;;;30.50;16.63;;;;;;;;;;5080608;28;20075;-63
2022/03/10 18:15:12;;;;;;;34.88;17.08;;;;;;;;;;5089740;28;20041;-62
2022/03/10 18:17:38;;;;;;;33.35;16.38;;;;;;;;;;5079133;27;20060;-63
2022/03/10 18:20:05;;;;;;;31.60;16.05;;;;;;;;;;5086151;28;20044;-63
2022/03/10 18:22:32;;;;;;;34.05;16.48;;;;;;;;;;5083934;28;20058;-63
2022/03/10 18:24:58;;;;;;;32.85;16.15;;;;;;;;;;5077027;28;20059;-63
2022/03/10 18:27:24;;;;;;;31.08;16.80;;;;;;;;;;5088708;28;20051;-63
2022/03/10 18:29:51;;;;;;;32.75;16.10;;;;;;;;;;5071209;28;20139;-63
2022/03/10 18:32:17;;;;;;;32.17;15.55;;;;;;;;;;5071371;28;20049;-63
2022/03/10 18:34:44;;;;;;;36.35;16.02;;;;;;;;;;5080868;28;20048;-63
2022/03/10 18:37:10;;;;;;;29.77;16.23;;;;;;;;;;5089503;28;20525;-64
2022/03/10 18:39:37;;;;;;;29.67;14.40;;;;;;;;;;5076580;28;20751;-63
2022/03/10 18:42:05;;;;;;;29.40;15.35;;;;;;;;;;5068230;28;20517;-63
2022/03/10 18:44:31;;;;;;;27.23;14.15;;;;;;;;;;5080722;28;20056;-63
2022/03/10 18:46:57;;;;;;;32.17;15.93;;;;;;;;;;5069265;28;20063;-63
2022/03/10 18:49:31;;;;;;;31.13;16.15;;;;;;;;;;5067287;28;20057;-63
2022/03/10 18:51:58;;;;;;;29.40;15.80;;;;;;;;;;5081162;28;20048;-63
2022/03/10 18:54:24;;;;;;;33.13;16.60;;;;;;;;;;5085391;28;20135;-63
2022/03/10 18:56:51;;;;;;;30.73;14.68;;;;;;;;;;5083979;28;20057;-63
2022/03/10 18:59:17;;;;;;;28.50;14.65;;;;;;;;;;5067684;28;20060;-63
2022/03/10 19:01:43;;;;;;;34.42;14.80;;;;;;;;;;5069194;28;20041;-63
2022/03/10 19:04:10;;;;;;;28.63;14.40;;;;;;;;;;5079364;28;21581;-63
2022/03/10 19:06:38;;;;;;;27.08;13.73;;;;;;;;;;5067730;28;20049;-63
2022/03/10 19:09:04;;;;;;;32.45;14.45;;;;;;;;;;5070296;28;20107;-64
2022/03/10 19:11:31;;;;;;;32.72;14.65;;;;;;;;;;5067418;28;20052;-63
2022/03/10 19:13:58;;;;;;;24.10;12.90;;;;;;;;;;5069222;28;20549;-64
2022/03/10 19:16:24;;;;;;;27.25;13.40;;;;;;;;;;5068344;28;20053;-63
2022/03/10 19:18:51;;;;;;;24.40;13.52;;;;;;;;;;5070675;28;20155;-69
2022/03/10 19:21:17;;;;;;;22.63;11.98;;;;;;;;;;5088309;28;20097;-64
2022/03/10 19:23:45;;;;;;;27.77;11.90;;;;;;;;;;5077295;28;20049;-66
2022/03/10 19:26:11;;;;;;;22.38;11.30;;;;;;;;;;5098553;27;20513;-63
2022/03/10 19:28:38;;;;;;;23.58;11.23;;;;;;;;;;5083592;28;20168;-62
2022/03/10 19:31:04;;;;;;;23.30;12.20;;;;;;;;;;5074920;28;20071;-62
2022/03/10 19:33:31;;;;;;;20.90;11.07;;;;;;;;;;5084226;28;20437;-62
2022/03/10 19:35:57;;;;;;;22.88;10.90;;;;;;;;;;5073016;28;20089;-62
2022/03/10 19:38:23;;;;;;;23.00;11.55;;;;;;;;;;5075502;28;21425;-62
2022/03/10 19:40:51;;;;;;;22.83;11.27;;;;;;;;;;5085774;28;20546;-65
2022/03/10 19:43:18;;;;;;;20.15;11.20;;;;;;;;;;5072547;28;20689;-66
2022/03/10 19:45:44;;;;;;;22.42;11.27;;;;;;;;;;5076380;28;20052;-63
2022/03/10 19:48:10;;;;;;;21.83;10.38;;;;;;;;;;5084701;28;20256;-67
2022/03/10 19:50:37;;;;;;;21.10;10.15;;;;;;;;;;5079909;28;20048;-69
2022/03/10 19:53:05;;;;;;;24.40;11.05;;;;;;;;;;5087941;28;20058;-64
2022/03/10 19:55:32;;;;;;;25.75;11.23;;;;;;;;;;5085636;28;20528;-64
2022/03/10 19:58:00;;;;;;;;;;;;;;;;;;5073992;28;20540;-64
2022/03/10 20:00:26;;;;;;;20.60;10.30;;;;;;;;;;5067959;28;45244;-62
2022/03/10 20:02:53;;;;;;;20.83;10.10;;;;;;;;;;5068113;28;20057;-62
2022/03/10 20:05:21;;;;;;;21.70;10.48;;;;;;;;;;5073383;28;20589;-64
2022/03/10 20:07:47;;;;;;;20.35;9.52;;;;;;;;;;5087292;28;20056;-64
2022/03/10 20:10:14;;;;;;;23.90;9.90;;;;;;;;;;5081653;28;20060;-65
2022/03/10 20:12:41;;;;;;;23.48;11.20;;;;;;;;;;5071349;28;20590;-64
2022/03/10 20:15:08;;;;;;;28.33;10.63;;;;;;;;;;5100308;28;20048;-64
2022/03/10 20:17:35;;;;;;;20.23;10.40;;;;;;;;;;5097840;27;20073;-63
2022/03/10 20:20:03;;;;;;;23.90;11.20;;;;;;;;;;5086333;28;20053;-63
2022/03/10 20:22:29;;;;;;;20.65;11.07;;;;;;;;;;5079957;28;20056;-61
2022/03/10 20:24:55;;;;;;;23.40;9.80;;;;;;;;;;5075274;28;20052;-61
2022/03/10 20:27:22;;;;;;;20.00;10.32;;;;;;;;;;5096256;27;20626;-63
2022/03/10 20:29:48;;;;;;;21.90;10.82;;;;;;;;;;5087536;28;20131;-63
2022/03/10 20:32:15;;;;;;;19.45;9.68;;;;;;;;;;5086053;28;20053;-64
2022/03/10 20:34:42;;;;;;;21.05;10.40;;;;;;;;;;5087859;28;20515;-62
2022/03/10 20:37:08;;;;;;;19.30;9.93;;;;;;;;;;5082199;28;20052;-62
2022/03/10 20:39:34;;;;;;;17.30;9.48;;;;;;;;;;5083107;28;20084;-63
2022/03/10 20:42:01;;;;;;;22.77;11.05;;;;;;;;;;5081730;28;20056;-63
2022/03/10 20:44:27;;;;;;;19.23;10.15;;;;;;;;;;5086734;28;20044;-62
2022/03/10 20:46:53;;;;;;;18.83;9.00;;;;;;;;;;5071839;28;20565;-64
2022/03/10 20:49:20;;;;;;;16.80;8.20;;;;;;;;;;5066712;28;20473;-64
2022/03/10 20:51:49;;;;;;;18.20;9.35;;;;;;;;;;5066633;28;20053;-63
2022/03/10 20:54:15;;;;;;;20.08;9.00;;;;;;;;;;5070221;28;20062;-63
2022/03/10 20:56:42;;;;;;;15.02;7.78;;;;;;;;;;5065551;28;20060;-63
2022/03/10 20:59:09;;;;;;;14.30;7.07;;;;;;;;;;5067136;28;20057;-63
2022/03/10 21:01:35;;;;;;;17.55;7.70;;;;;;;;;;5067111;28;20574;-64
2022/03/10 21:04:09;;;;;;;21.10;7.20;;;;;;;;;;5066473;28;20057;-65
2022/03/10 21:06:35;;;;;;;14.02;7.05;;;;;;;;;;5076276;28;20052;-64
2022/03/10 21:09:02;;;;;;;13.55;7.25;;;;;;;;;;5086307;28;20056;-64
2022/03/10 21:11:28;;;;;;;15.77;7.15;;;;;;;;;;5087019;28;20541;-64
2022/03/10 21:13:54;;;;;;;12.95;7.07;;;;;;;;;;5078919;28;20517;-67
2022/03/10 21:16:21;;;;;;;16.77;7.68;;;;;;;;;;5077755;28;20068;-63
2022/03/10 21:18:47;;;;;;;20.23;7.75;;;;;;;;;;5085105;28;20086;-70
2022/03/10 21:21:14;;;;;;;11.45;6.10;;;;;;;;;;5088182;28;20053;-64
2022/03/10 21:23:40;;;;;;;12.95;7.13;;;;;;;;;;5073103;28;20418;-63
2022/03/10 21:26:06;;;;;;;13.55;6.40;;;;;;;;;;5075919;28;20051;-71
2022/03/10 21:28:33;;;;;;;13.18;6.10;;;;;;;;;;5069834;28;20048;-76
2022/03/10 21:31:00;;;;;;;14.93;6.93;;;;;;;;;;5080716;28;20052;-77
2022/03/10 21:33:30;;;;;;;13.52;6.38;;;;;;;;;;5088736;28;20048;-64
2022/03/10 21:35:57;;;;;;;15.98;6.18;;;;;;;;;;5080620;28;20136;-63
2022/03/10 21:38:24;;;;;;;12.05;6.07;;;;;;;;;;5070311;28;20049;-64
2022/03/10 21:40:50;;;;;;;13.75;5.88;;;;;;;;;;5076673;28;20107;-64
2022/03/10 21:43:16;;;;;;;14.25;6.50;;;;;;;;;;5089279;28;20148;-64
2022/03/10 21:45:43;;;;;;;13.23;5.50;;;;;;;;;;5074131;28;20061;-64
2022/03/10 21:48:09;;;;;;;17.67;6.00;;;;;;;;;;5070090;28;20502;-63
2022/03/10 21:50:35;;;;;;;12.50;6.07;;;;;;;;;;5070504;28;20126;-64
2022/03/10 21:53:21;;;;;;;13.65;6.32;;;;;;;;;;5070214;28;20056;-63
2022/03/10 21:55:48;;;;;;;12.55;6.65;;;;;;;;;;5085815;28;20049;-63
2022/03/10 21:58:14;;;;;;;12.82;5.80;;;;;;;;;;5089835;28;20155;-63
2022/03/10 22:00:41;;;;;;;12.73;6.65;;;;;;;;;;5079618;28;20099;-65
2022/03/10 22:03:07;;;;;;;13.68;7.03;;;;;;;;;;5083580;28;20135;-63
2022/03/10 22:05:34;;;;;;;13.73;7.18;;;;;;;;;;5073620;28;20052;-62
2022/03/10 22:08:05;;;;;;;13.10;5.57;;;;;;;;;;5069173;28;20059;-63
2022/03/10 22:10:33;;;;;;;14.35;6.70;;;;;;;;;;5068920;28;20060;-63
2022/03/10 22:13:00;;;;;;;12.65;6.40;;;;;;;;;;5073448;28;20059;-62
2022/03/10 22:15:26;;;;;;;11.07;5.38;;;;;;;;;;5082214;28;20606;-63
2022/03/10 22:18:00;;;;;;;13.68;6.32;;;;;;;;;;5074349;28;20052;-63
2022/03/10 22:20:27;;;;;;;14.00;5.57;;;;;;;;;;5079219;28;20091;-63
2022/03/10 22:22:53;;;;;;;10.25;5.45;;;;;;;;;;5074517;28;20055;-64
2022/03/10 22:25:19;;;;;;;14.52;5.45;;;;;;;;;;5078432;28;20503;-64
2022/03/10 22:27:46;;;;;;;12.90;6.00;;;;;;;;;;5078880;28;20151;-64
2022/03/10 22:30:12;;;;;;;11.30;5.45;;;;;;;;;;5083648;28;20061;-64
2022/03/10 22:32:38;;;;;;;10.57;5.15;;;;;;;;;;5070348;28;20083;-64
2022/03/10 22:35:05;;;;;;;12.48;5.30;;;;;;;;;;5085952;28;20053;-64